Time;durP1;ratioP1;P1;durP2;ratioP2;P2;SDS_P1;SDS_P2;PMS_P1;PMS_P2;Temp;Humidity;BMP_temperature;BMP_pressure;BME280_temperature;BME280_humidity;BME280_pressure;Samples;Min_cycle;Max_cycle;Signal;HPM_P1;HPM_P2
2023/05/27 12:11:42;;;;;;;31.80;14.40;;;;;;;19.96;100.00;100698.26;102895;1295;618260;-83
2023/05/27 12:14:07;;;;;;;34.70;13.40;;;;;;;21.11;100.00;100689.58;103223;1291;60403;-83
2023/05/27 12:16:34;;;;;;;30.40;14.00;;;;;;;20.84;100.00;100683.16;103335;1291;60432;-83
2023/05/27 12:18:59;;;;;;;28.00;12.10;;;;;;;21.00;100.00;100679.27;102993;1294;60532;-83
2023/05/27 12:21:25;;;;;;;33.90;14.60;;;;;;;21.20;100.00;100670.94;103295;1289;60346;-83
2023/05/27 12:23:51;;;;;;;27.20;13.70;;;;;;;21.12;100.00;100683.16;103013;1289;537591;-83
2023/05/27 12:26:18;;;;;;;32.30;13.90;;;;;;;21.05;100.00;100685.44;103536;1287;60414;-82
2023/05/27 12:28:44;;;;;;;39.10;15.90;;;;;;;21.29;100.00;100682.73;103412;1289;73470;-83
2023/05/27 12:31:10;;;;;;;34.10;15.00;;;;;;;21.53;100.00;100679.34;103452;1289;60399;-83
2023/05/27 12:33:37;;;;;;;31.00;14.00;;;;;;;21.37;100.00;100684.07;103228;1291;74092;-83
2023/05/27 12:36:05;;;;;;;35.30;14.80;;;;;;;20.93;100.00;100687.58;103187;1292;60327;-83
2023/05/27 12:38:31;;;;;;;32.10;14.40;;;;;;;21.17;100.00;100689.45;103193;1289;61521;-83
2023/05/27 12:40:57;;;;;;;41.20;15.50;;;;;;;21.35;100.00;100693.33;103453;1291;60315;-83
2023/05/27 12:46:50;;;;;;;47.20;17.30;;;;;;;21.13;100.00;100707.60;103398;1285;600110;-83
2023/05/27 12:49:15;;;;;;;37.20;14.00;;;;;;;21.32;100.00;100711.69;103646;1286;60410;-83
2023/05/27 12:55:10;;;;;;;31.40;13.40;;;;;;;21.14;100.00;100713.04;103133;1289;600080;-84
2023/05/27 12:57:36;;;;;;;41.10;14.30;;;;;;;21.21;100.00;100707.88;103442;1293;60342;-83
2023/05/27 13:00:01;;;;;;;33.90;13.40;;;;;;;21.46;100.00;100706.48;103422;1292;60395;-83
2023/05/27 13:02:27;;;;;;;34.40;15.50;;;;;;;21.37;100.00;100700.99;103225;1292;60332;-83
2023/05/27 13:04:53;;;;;;;28.80;14.10;;;;;;;21.23;100.00;100686.16;103432;1292;60353;-83
2023/05/27 13:07:18;;;;;;;33.10;12.50;;;;;;;21.17;100.00;100686.61;103527;1289;60358;-83
2023/05/27 13:09:44;;;;;;;32.60;12.10;;;;;;;21.12;100.00;100678.06;103312;1288;345787;-84
2023/05/27 13:12:10;;;;;;;32.80;12.20;;;;;;;20.97;100.00;100679.92;103775;1288;60369;-84
2023/05/27 13:14:36;;;;;;;26.80;11.90;;;;;;;20.86;100.00;100683.53;103699;1289;60392;-83
2023/05/27 13:17:02;;;;;;;30.90;12.00;;;;;;;20.85;100.00;100684.89;103379;1286;60463;-83
2023/05/27 13:19:28;;;;;;;30.60;12.70;;;;;;;21.00;100.00;100684.86;103646;1287;60338;-84
2023/05/27 13:21:53;;;;;;;39.00;13.60;;;;;;;21.05;100.00;100681.99;103779;1286;60318;-83
2023/05/27 13:24:20;;;;;;;30.80;13.10;;;;;;;21.09;100.00;100672.60;106514;1285;70274;-84
2023/05/27 13:26:45;;;;;;;34.10;13.60;;;;;;;21.09;100.00;100673.45;106875;1285;58243;-84
2023/05/27 13:29:11;;;;;;;33.30;13.40;;;;;;;21.29;100.00;100667.70;106885;1285;58450;-84
2023/05/27 13:31:37;;;;;;;36.60;13.50;;;;;;;21.41;100.00;100669.20;106886;1286;58094;-84
2023/05/27 13:34:02;;;;;;;35.40;13.20;;;;;;;21.51;100.00;100671.25;106893;1285;58090;-84
2023/05/27 13:36:28;;;;;;;29.00;11.70;;;;;;;21.51;100.00;100672.03;106522;1286;58293;-88
2023/05/27 13:38:54;;;;;;;31.60;11.90;;;;;;;21.48;100.00;100668.33;106703;1285;62648;-88
2023/05/27 13:41:20;;;;;;;31.60;12.80;;;;;;;21.58;100.00;100663.86;106854;1283;58103;-88
2023/05/27 13:43:46;;;;;;;32.80;12.00;;;;;;;21.58;100.00;100659.08;107024;1283;58195;-88
2023/05/27 13:46:12;;;;;;;29.10;11.30;;;;;;;21.66;100.00;100657.80;106707;1283;58054;-86
2023/05/27 13:48:37;;;;;;;34.70;11.30;;;;;;;21.58;100.00;100653.98;106837;1283;58123;-86
2023/05/27 13:51:03;;;;;;;24.90;10.40;;;;;;;21.44;100.00;100650.46;106758;1283;58165;-83
2023/05/27 13:53:28;;;;;;;24.80;10.10;;;;;;;21.45;100.00;100645.33;107113;1283;58228;-84
2023/05/27 13:55:54;;;;;;;28.10;10.20;;;;;;;21.46;100.00;100651.00;107075;1283;58131;-84
2023/05/27 13:58:19;;;;;;;22.00;9.40;;;;;;;21.70;100.00;100647.84;107089;1283;58140;-84
2023/05/27 14:00:45;;;;;;;22.00;9.90;;;;;;;21.62;100.00;100648.40;107047;1283;58110;-83
2023/05/27 14:03:10;;;;;;;18.00;8.90;;;;;;;21.60;100.00;100653.52;107070;1283;58020;-84
2023/05/27 14:05:36;;;;;;;23.50;8.70;;;;;;;21.58;100.00;100662.17;106576;1283;58636;-84
2023/05/27 14:08:03;;;;;;;23.40;9.20;;;;;;;21.47;100.00;100668.21;106800;1283;72688;-84
2023/05/27 14:10:31;;;;;;;19.10;9.00;;;;;;;21.56;100.00;100671.77;106993;1283;61811;-84
2023/05/27 14:12:56;;;;;;;17.70;8.80;;;;;;;21.37;100.00;100677.64;107021;1283;59851;-84
2023/05/27 14:15:22;;;;;;;19.20;9.00;;;;;;;21.22;100.00;100676.27;107058;1283;58027;-84
2023/05/27 14:17:47;;;;;;;20.50;9.10;;;;;;;21.10;100.00;100672.71;107051;1283;58256;-83
2023/05/27 14:20:13;;;;;;;17.50;8.20;;;;;;;21.09;100.00;100669.94;106442;1283;58413;-83
2023/05/27 14:22:39;;;;;;;23.30;9.50;;;;;;;21.18;100.00;100665.36;107093;1283;58218;-83
2023/05/27 14:37:13;;;;;;;25.80;10.90;;;;;;;21.46;100.00;100658.04;103798;1283;613501;-82
2023/05/27 14:39:39;;;;;;;35.20;12.80;;;;;;;21.60;100.00;100657.49;104000;1286;156823;-83
2023/05/27 14:42:06;;;;;;;39.10;13.20;;;;;;;21.51;100.00;100659.27;104294;1280;60312;-83
2023/05/27 14:44:38;;;;;;;37.30;14.80;;;;;;;21.31;100.00;100665.83;104268;1284;60325;-83
2023/05/27 14:55:25;;;;;;;35.10;12.90;;;;;;;21.08;100.00;100673.04;96584;1286;971206;-81
2023/05/27 14:57:52;;;;;;;30.70;12.50;;;;;;;20.98;100.00;100669.85;103426;1286;60425;-82
2023/05/27 15:00:18;;;;;;;28.60;12.70;;;;;;;20.99;100.00;100668.73;103613;1290;60409;-82
2023/05/27 15:02:43;;;;;;;33.50;13.70;;;;;;;20.98;100.00;100674.56;103173;1286;60469;-82
2023/05/27 15:05:10;;;;;;;31.10;14.70;;;;;;;20.90;100.00;100672.98;103473;1286;60354;-82
2023/05/27 15:07:37;;;;;;;32.60;14.20;;;;;;;20.74;100.00;100676.38;103258;1286;60425;-82
2023/05/27 15:10:05;;;;;;;33.00;13.90;;;;;;;20.77;100.00;100679.65;103751;1290;60416;-82
2023/05/27 15:12:46;;;;;;;41.00;15.80;;;;;;;20.86;100.00;100677.99;103164;1286;60396;-80
2023/05/27 15:15:14;;;;;;;45.40;14.90;;;;;;;20.85;100.00;100675.30;103420;1286;74973;-81
2023/05/27 15:21:11;;;;;;;35.70;15.20;;;;;;;21.01;100.00;100675.46;102687;1294;616100;-83
2023/05/27 15:23:37;;;;;;;44.60;17.10;;;;;;;20.85;100.00;100681.38;102757;1292;60730;-82
2023/05/27 15:26:02;;;;;;;46.10;16.30;;;;;;;20.86;100.00;100685.90;102998;1291;60389;-81
2023/05/27 15:28:28;;;;;;;43.20;16.60;;;;;;;21.00;100.00;100683.20;103133;1291;60395;-83
2023/05/27 15:30:54;;;;;;;46.00;17.60;;;;;;;21.01;100.00;100688.34;103047;1292;60756;-82
2023/05/27 15:33:19;;;;;;;53.30;17.90;;;;;;;20.96;100.00;100684.92;102679;1288;415395;-83
2023/05/27 15:35:45;;;;;;;47.30;18.30;;;;;;;21.01;100.00;100685.58;103114;1288;60447;-82
2023/05/27 15:38:20;;;;;;;60.00;20.60;;;;;;;21.04;100.00;100684.86;103198;1294;60367;-82
2023/05/27 15:41:05;;;;;;;48.40;19.10;;;;;;;21.14;100.00;100683.86;103561;1290;73996;-83
2023/05/27 15:43:31;;;;;;;47.40;17.40;;;;;;;21.04;100.00;100683.59;102923;1295;74006;-83
2023/05/27 15:46:15;;;;;;;62.70;20.30;;;;;;;21.23;100.00;100680.53;103240;1286;601182;-83
2023/05/27 15:48:41;;;;;;;58.20;19.80;;;;;;;21.18;100.00;100678.42;103054;1291;60472;-82
2023/05/27 15:51:07;;;;;;;42.40;17.10;;;;;;;21.15;100.00;100673.23;103102;1292;60379;-83
2023/05/27 15:53:33;;;;;;;44.50;17.50;;;;;;;21.06;100.00;100666.90;102859;1288;59529;-82
2023/05/27 15:56:01;;;;;;;54.40;17.00;;;;;;;21.06;100.00;100667.88;103178;1288;60835;-82
2023/05/27 15:58:27;;;;;;;45.90;17.80;;;;;;;21.16;100.00;100669.59;103013;1292;60369;-82
